Time;durP1;ratioP1;P1;durP2;ratioP2;P2;SDS_P1;SDS_P2;PMS_P1;PMS_P2;Temp;Humidity;BMP_temperature;BMP_pressure;BME280_temperature;BME280_humidity;BME280_pressure;Samples;Min_cycle;Max_cycle;Signal;HPM_P1;HPM_P2
2022/01/30 00:00:01;;;;;;;4.57;1.10;;;7.00;99.90;;;;;;5029777;28;20498;-92
2022/01/30 00:02:33;;;;;;;7.93;1.17;;;7.10;99.90;;;;;;5015303;28;20075;-90
2022/01/30 00:05:00;;;;;;;5.22;1.15;;;7.10;99.90;;;;;;5030405;28;20070;-93
2022/01/30 00:07:27;;;;;;;4.40;1.15;;;7.10;99.90;;;;;;5028710;28;20052;-92
2022/01/30 00:09:54;;;;;;;5.90;1.13;;;7.10;99.90;;;;;;5028429;28;20062;-90
2022/01/30 00:12:28;;;;;;;5.00;1.38;;;7.00;99.90;;;;;;5028168;28;20471;-93
2022/01/30 00:14:56;;;;;;;3.88;1.55;;;6.90;99.90;;;;;;5028616;28;20165;-90
2022/01/30 00:17:31;;;;;;;6.18;1.13;;;6.90;99.90;;;;;;5028911;28;20052;-91
2022/01/30 00:20:05;;;;;;;12.65;1.75;;;6.80;99.90;;;;;;5029054;28;20060;-90
2022/01/30 00:25:06;;;;;;;8.27;1.15;;;6.90;99.90;;;;;;5013509;28;20108;-89
2022/01/30 00:27:46;;;;;;;6.03;1.20;;;7.00;99.90;;;;;;5028860;28;20156;-89
2022/01/30 00:30:15;;;;;;;8.77;1.60;;;7.00;99.90;;;;;;5028773;28;20056;-89
2022/01/30 00:32:42;;;;;;;6.63;1.60;;;7.00;99.90;;;;;;5028435;28;20137;-88
2022/01/30 00:35:29;;;;;;;5.70;1.40;;;6.90;99.90;;;;;;5026079;28;20050;-92
2022/01/30 00:37:56;;;;;;;9.25;1.40;;;6.80;99.90;;;;;;5028627;28;20064;-90
2022/01/30 00:40:38;;;;;;;7.53;1.33;;;6.60;99.90;;;;;;5013921;28;20482;-91
2022/01/30 00:43:06;;;;;;;5.93;1.15;;;6.50;99.90;;;;;;5028404;28;20131;-91
2022/01/30 00:45:34;;;;;;;9.02;1.52;;;6.30;99.90;;;;;;5028103;28;20104;-88
2022/01/30 00:48:02;;;;;;;11.48;1.63;;;6.30;99.90;;;;;;5028374;28;20406;-88
2022/01/30 00:50:29;;;;;;;7.55;1.40;;;6.10;99.90;;;;;;5028439;28;20163;-88
2022/01/30 00:52:56;;;;;;;8.07;1.50;;;6.00;99.90;;;;;;5028062;28;20558;-89
2022/01/30 00:55:25;;;;;;;5.10;1.10;;;6.00;99.90;;;;;;5028449;28;20042;-92
2022/01/30 00:57:53;;;;;;;8.75;1.20;;;6.00;99.90;;;;;;5012621;28;20060;-89
2022/01/30 01:00:22;;;;;;;5.53;0.90;;;6.20;99.90;;;;;;5028888;28;20046;-94
2022/01/30 01:02:51;;;;;;;9.75;1.30;;;6.30;99.90;;;;;;5029605;28;20548;-92
2022/01/30 01:05:19;;;;;;;11.23;1.35;;;6.50;99.90;;;;;;5028636;28;20532;-88
2022/01/30 01:07:48;;;;;;;6.38;1.17;;;6.60;99.90;;;;;;5029475;28;20503;-88
2022/01/30 01:13:04;;;;;;;7.53;1.27;;;6.70;99.90;;;;;;5016253;28;20049;-92
2022/01/30 01:23:50;;;;;;;5.70;1.00;;;6.80;99.90;;;;;;5016218;28;20133;-88
2022/01/30 01:26:20;;;;;;;3.35;1.05;;;6.80;99.90;;;;;;5031721;28;20054;-88
2022/01/30 01:28:48;;;;;;;8.55;1.38;;;6.80;99.90;;;;;;5031614;28;20042;-88
2022/01/30 01:31:15;;;;;;;4.45;1.10;;;6.80;99.90;;;;;;5031390;28;20046;-88
2022/01/30 01:36:18;;;;;;;5.45;1.42;;;6.80;99.90;;;;;;5016172;28;20140;-89
2022/01/30 01:38:45;;;;;;;10.02;1.65;;;6.80;99.90;;;;;;5031172;28;20050;-88
2022/01/30 01:41:14;;;;;;;4.10;1.00;;;6.70;99.90;;;;;;5031697;28;20566;-88
2022/01/30 01:43:41;;;;;;;5.90;1.15;;;6.70;99.90;;;;;;5031508;28;20046;-88
2022/01/30 01:46:18;;;;;;;9.82;1.38;;;6.60;99.90;;;;;;5031011;28;20218;-89
2022/01/30 01:48:47;;;;;;;6.50;1.33;;;6.50;99.90;;;;;;5031358;28;20049;-88
2022/01/30 01:51:18;;;;;;;6.63;1.00;;;6.40;99.90;;;;;;5031510;28;20050;-87
2022/01/30 01:53:47;;;;;;;4.65;0.88;;;6.20;99.90;;;;;;5031119;28;20054;-88
2022/01/30 01:56:15;;;;;;;7.70;1.55;;;6.20;99.90;;;;;;5015626;28;20042;-89
2022/01/30 01:58:43;;;;;;;9.73;1.17;;;6.00;99.90;;;;;;5031007;28;20046;-88
2022/01/30 02:01:10;;;;;;;6.85;1.52;;;5.90;99.90;;;;;;5031094;28;20104;-88
2022/01/30 02:03:38;;;;;;;8.23;1.30;;;5.80;99.90;;;;;;5014806;28;20046;-87
2022/01/30 02:06:09;;;;;;;5.63;1.10;;;5.70;99.90;;;;;;5015709;28;20516;-91
2022/01/30 02:11:39;;;;;;;7.18;1.27;;;5.60;99.90;;;;;;5003025;28;20137;-88
2022/01/30 02:25:33;;;;;;;4.88;0.90;;;5.30;99.90;;;;;;5015420;28;20053;-88
2022/01/30 02:28:06;;;;;;;3.35;0.75;;;5.20;99.90;;;;;;5030764;28;20402;-89
2022/01/30 02:30:36;;;;;;;2.97;0.90;;;4.90;99.90;;;;;;5030604;28;20132;-89
2022/01/30 02:33:03;;;;;;;3.83;0.80;;;4.70;99.90;;;;;;5030513;28;20100;-88
2022/01/30 02:35:30;;;;;;;5.07;1.20;;;4.60;99.90;;;;;;5030411;28;20049;-88
2022/01/30 02:37:59;;;;;;;3.97;0.95;;;4.50;99.90;;;;;;5030488;28;20394;-88
2022/01/30 02:40:27;;;;;;;8.27;1.42;;;4.40;99.90;;;;;;5029575;28;20494;-88
2022/01/30 02:42:54;;;;;;;5.00;1.13;;;4.40;99.90;;;;;;5030656;28;20069;-90
2022/01/30 02:45:25;;;;;;;5.43;1.13;;;4.50;99.90;;;;;;5030369;28;20065;-89
2022/01/30 02:48:32;;;;;;;3.92;1.05;;;4.60;99.90;;;;;;5030580;28;20045;-88
2022/01/30 02:51:06;;;;;;;3.65;0.80;;;4.60;99.90;;;;;;5011797;28;20140;-88
2022/01/30 02:53:38;;;;;;;6.55;0.98;;;4.60;99.90;;;;;;5029785;28;20049;-88
2022/01/30 02:56:06;;;;;;;6.45;1.17;;;4.60;99.90;;;;;;5030130;28;20133;-88
2022/01/30 02:58:32;;;;;;;9.48;1.60;;;4.70;99.90;;;;;;5030815;28;20050;-91
2022/01/30 03:00:59;;;;;;;7.25;1.35;;;4.60;99.90;;;;;;5033209;28;20133;-87
2022/01/30 03:03:26;;;;;;;7.22;1.50;;;4.70;99.90;;;;;;5029658;28;20050;-88
2022/01/30 03:05:53;;;;;;;10.52;1.70;;;4.70;99.90;;;;;;5029678;28;20056;-88
2022/01/30 03:08:20;;;;;;;10.88;1.73;;;4.70;99.90;;;;;;5030287;28;20054;-89
2022/01/30 03:10:46;;;;;;;21.75;2.33;;;4.70;99.90;;;;;;5033005;28;20050;-88
2022/01/30 03:13:13;;;;;;;8.38;1.90;;;4.70;99.90;;;;;;5030327;28;20048;-88
2022/01/30 03:15:40;;;;;;;8.85;1.30;;;4.70;99.90;;;;;;5029419;28;20050;-88
2022/01/30 03:18:06;;;;;;;10.55;1.60;;;4.80;99.90;;;;;;5029783;28;20046;-88
2022/01/30 03:20:33;;;;;;;10.68;1.75;;;4.80;99.90;;;;;;5029531;28;20491;-88
2022/01/30 03:23:02;;;;;;;6.40;1.27;;;4.90;99.90;;;;;;5030137;28;20136;-88
2022/01/30 03:25:30;;;;;;;6.65;1.42;;;5.00;99.90;;;;;;5030576;28;20050;-88
2022/01/30 03:27:57;;;;;;;5.72;1.10;;;5.00;99.90;;;;;;5029793;28;20050;-89
2022/01/30 03:30:28;;;;;;;9.27;2.05;;;5.00;99.90;;;;;;5029369;28;20546;-88
2022/01/30 03:32:55;;;;;;;8.77;1.80;;;4.90;99.90;;;;;;5029245;28;20053;-87
2022/01/30 03:35:22;;;;;;;12.20;1.20;;;4.90;99.90;;;;;;5029472;28;20421;-88
2022/01/30 03:37:49;;;;;;;7.72;1.98;;;4.90;99.90;;;;;;5029142;28;20391;-88
2022/01/30 03:40:16;;;;;;;6.85;1.38;;;4.80;99.90;;;;;;5028955;28;20077;-88
2022/01/30 03:42:42;;;;;;;8.18;1.30;;;4.80;99.90;;;;;;5028946;28;20059;-88
2022/01/30 03:45:09;;;;;;;4.88;1.15;;;4.80;99.90;;;;;;5029003;28;20532;-88
2022/01/30 03:47:36;;;;;;;7.57;1.60;;;4.80;99.90;;;;;;5029252;28;20077;-88
2022/01/30 03:50:04;;;;;;;12.93;1.50;;;4.80;99.90;;;;;;5029162;28;20049;-88
2022/01/30 03:52:31;;;;;;;7.53;1.40;;;4.80;99.90;;;;;;5028937;28;20073;-88
2022/01/30 03:54:57;;;;;;;13.25;1.70;;;4.80;99.90;;;;;;5028950;28;20453;-90
2022/01/30 03:57:24;;;;;;;11.05;1.50;;;4.80;99.90;;;;;;5028648;28;20136;-88
2022/01/30 03:59:51;;;;;;;11.63;1.65;;;4.90;99.90;;;;;;5028834;28;20136;-88
2022/01/30 04:02:17;;;;;;;19.67;2.05;;;4.90;99.90;;;;;;5028854;28;20068;-91
2022/01/30 04:04:45;;;;;;;7.95;1.70;;;4.80;99.90;;;;;;5029512;28;20080;-88
2022/01/30 04:07:11;;;;;;;10.90;1.50;;;5.00;99.90;;;;;;5012630;28;20045;-87
2022/01/30 04:09:38;;;;;;;10.35;2.00;;;5.00;99.90;;;;;;5027397;28;20133;-90
2022/01/30 04:12:06;;;;;;;13.32;2.00;;;4.90;99.90;;;;;;5027880;28;20045;-87
2022/01/30 04:14:33;;;;;;;7.20;1.98;;;5.00;99.90;;;;;;5027831;28;20486;-87
2022/01/30 04:17:00;;;;;;;7.63;1.30;;;5.00;99.90;;;;;;5028877;28;20474;-88
2022/01/30 04:19:27;;;;;;;8.68;1.83;;;5.00;99.90;;;;;;5028889;28;20137;-89
2022/01/30 04:21:53;;;;;;;5.85;1.08;;;5.10;99.90;;;;;;5028865;28;20053;-88
2022/01/30 04:24:21;;;;;;;7.40;1.58;;;5.10;99.90;;;;;;5013700;28;20573;-88
2022/01/30 04:26:47;;;;;;;7.45;1.30;;;5.10;99.90;;;;;;5028624;28;20052;-87
2022/01/30 04:29:14;;;;;;;8.55;1.63;;;5.10;99.90;;;;;;5028723;28;20046;-88
2022/01/30 04:31:42;;;;;;;9.68;1.52;;;5.20;99.90;;;;;;5028522;28;20056;-88
2022/01/30 04:34:10;;;;;;;10.50;2.05;;;5.20;99.90;;;;;;5028547;28;20049;-89
2022/01/30 04:36:43;;;;;;;9.32;1.75;;;5.20;99.90;;;;;;5028787;28;20054;-87
2022/01/30 04:39:28;;;;;;;13.07;1.93;;;5.20;99.90;;;;;;5028622;28;20076;-88
2022/01/30 04:55:56;;;;;;;7.78;1.33;;;5.20;99.90;;;;;;5016617;28;20434;-90
2022/01/30 04:58:27;;;;;;;8.68;1.67;;;5.20;99.90;;;;;;5016904;28;20056;-89
2022/01/30 05:01:06;;;;;;;7.30;1.48;;;5.20;99.90;;;;;;5032919;28;20058;-88
2022/01/30 05:06:06;;;;;;;6.20;1.30;;;5.20;99.90;;;;;;5016695;28;20068;-90
2022/01/30 05:08:34;;;;;;;5.95;1.20;;;5.30;99.90;;;;;;5032063;28;20085;-88
2022/01/30 05:11:04;;;;;;;5.93;1.38;;;5.20;99.90;;;;;;5032580;28;20073;-88
2022/01/30 05:13:33;;;;;;;5.60;1.20;;;5.30;99.90;;;;;;5032426;28;20387;-88
2022/01/30 05:16:00;;;;;;;6.28;1.30;;;5.30;99.90;;;;;;5031743;28;20054;-87
2022/01/30 05:18:29;;;;;;;7.10;1.73;;;5.20;99.90;;;;;;5032524;28;20066;-87
2022/01/30 05:20:56;;;;;;;10.95;1.85;;;5.30;99.90;;;;;;5032388;28;20064;-88
2022/01/30 05:23:23;;;;;;;11.88;1.58;;;5.30;99.90;;;;;;5032416;28;20046;-87
2022/01/30 05:25:52;;;;;;;5.35;1.20;;;5.30;99.90;;;;;;5031571;28;20141;-93
2022/01/30 05:28:22;;;;;;;6.85;1.50;;;5.30;99.90;;;;;;5031856;28;20133;-88
2022/01/30 05:30:50;;;;;;;5.82;1.27;;;5.30;99.90;;;;;;5032017;28;20056;-87
2022/01/30 05:33:17;;;;;;;6.10;1.25;;;5.30;99.90;;;;;;5032293;28;20574;-89
2022/01/30 05:35:44;;;;;;;7.97;1.20;;;5.30;99.90;;;;;;5031432;28;20050;-92
2022/01/30 05:38:11;;;;;;;7.13;1.30;;;5.30;99.90;;;;;;5032262;28;20077;-88
2022/01/30 05:40:38;;;;;;;8.02;1.55;;;5.40;99.90;;;;;;5031831;28;20058;-88
2022/01/30 05:43:05;;;;;;;10.07;1.65;;;5.40;99.90;;;;;;5032186;28;20038;-91
2022/01/30 05:45:40;;;;;;;8.15;1.33;;;5.40;99.90;;;;;;5031473;28;20103;-88
2022/01/30 05:48:15;;;;;;;6.28;1.10;;;5.30;99.90;;;;;;5031484;28;20058;-88
2022/01/30 05:50:44;;;;;;;8.98;1.70;;;5.30;99.90;;;;;;5031632;28;20050;-89
2022/01/30 05:53:10;;;;;;;8.48;1.38;;;5.30;99.90;;;;;;5030664;28;20074;-87
2022/01/30 05:55:37;;;;;;;6.78;1.33;;;5.30;99.90;;;;;;5029902;28;20096;-91
2022/01/30 05:58:04;;;;;;;8.50;1.27;;;5.20;99.90;;;;;;5032004;28;20486;-89
2022/01/30 06:00:31;;;;;;;8.50;1.33;;;5.30;99.90;;;;;;5031338;28;20129;-87
2022/01/30 06:02:58;;;;;;;6.05;1.30;;;5.30;99.90;;;;;;5031177;28;20557;-88
2022/01/30 06:05:26;;;;;;;11.68;1.63;;;5.30;99.90;;;;;;5030793;28;20454;-86
2022/01/30 06:07:55;;;;;;;9.93;1.50;;;5.30;99.90;;;;;;5030931;28;20042;-90
2022/01/30 06:10:28;;;;;;;6.13;1.20;;;5.30;99.90;;;;;;5030888;28;20054;-90
2022/01/30 06:12:55;;;;;;;12.00;1.50;;;5.20;99.90;;;;;;5031009;28;20406;-87
2022/01/30 06:15:21;;;;;;;8.00;1.33;;;5.20;99.90;;;;;;5030725;28;20054;-87
2022/01/30 06:17:48;;;;;;;4.75;1.25;;;5.20;99.90;;;;;;5030987;28;20129;-88
2022/01/30 06:20:15;;;;;;;7.85;1.88;;;5.20;99.90;;;;;;5030825;28;20475;-88
2022/01/30 06:22:42;;;;;;;5.43;1.08;;;5.20;99.90;;;;;;5030633;28;20053;-90
2022/01/30 06:25:12;;;;;;;5.45;1.23;;;5.10;99.90;;;;;;5030351;28;20058;-89
2022/01/30 06:27:39;;;;;;;9.60;1.50;;;5.20;99.90;;;;;;5030635;28;20477;-89
2022/01/30 06:30:07;;;;;;;7.70;1.17;;;5.10;99.90;;;;;;5030588;28;20060;-88
2022/01/30 06:32:34;;;;;;;6.45;1.25;;;5.10;99.90;;;;;;5030735;28;20401;-88
2022/01/30 06:35:04;;;;;;;6.95;1.23;;;5.00;99.90;;;;;;5029785;28;20133;-88
2022/01/30 06:37:32;;;;;;;11.63;1.95;;;5.00;99.90;;;;;;5031172;28;20065;-88
2022/01/30 06:39:59;;;;;;;5.18;1.40;;;5.10;99.90;;;;;;5030094;28;20489;-89
2022/01/30 06:42:28;;;;;;;12.68;2.60;;;5.00;99.90;;;;;;5030322;28;20409;-87
2022/01/30 06:44:55;;;;;;;10.82;1.80;;;5.00;99.90;;;;;;5030100;28;20082;-88
2022/01/30 06:47:22;;;;;;;7.80;1.75;;;5.00;99.90;;;;;;5029985;28;20050;-91
2022/01/30 06:49:49;;;;;;;8.57;1.17;;;5.00;99.90;;;;;;5030618;28;20469;-89
2022/01/30 06:52:15;;;;;;;8.32;2.00;;;5.00;99.90;;;;;;5029620;28;20056;-88
2022/01/30 06:54:42;;;;;;;11.30;1.35;;;5.00;99.90;;;;;;5028873;28;20057;-90
2022/01/30 06:57:09;;;;;;;8.80;1.45;;;5.00;99.90;;;;;;5029874;28;20050;-88
2022/01/30 06:59:37;;;;;;;12.93;2.03;;;5.00;99.90;;;;;;5030090;28;20077;-88
2022/01/30 07:02:05;;;;;;;9.77;1.75;;;5.00;99.90;;;;;;5029891;28;20074;-87
2022/01/30 07:04:33;;;;;;;9.95;1.98;;;5.00;99.90;;;;;;5029742;28;20057;-90
2022/01/30 07:07:03;;;;;;;7.95;1.55;;;5.00;99.90;;;;;;5029721;28;20141;-92
2022/01/30 07:09:31;;;;;;;8.85;1.73;;;5.10;99.90;;;;;;5030180;28;20054;-88
2022/01/30 07:11:58;;;;;;;8.63;1.48;;;5.00;99.90;;;;;;5029699;28;20049;-88
2022/01/30 07:14:25;;;;;;;6.60;1.50;;;5.00;99.90;;;;;;5030308;28;20060;-90
2022/01/30 07:16:52;;;;;;;5.80;1.60;;;5.10;99.90;;;;;;5030334;28;20050;-91
2022/01/30 07:19:19;;;;;;;6.35;1.02;;;5.20;99.90;;;;;;5029957;28;20074;-88
2022/01/30 07:21:46;;;;;;;8.98;1.50;;;5.20;99.90;;;;;;5029336;28;20046;-87
2022/01/30 07:24:13;;;;;;;7.45;1.60;;;5.10;99.90;;;;;;5029489;28;20403;-88
2022/01/30 07:26:39;;;;;;;7.32;1.75;;;5.00;99.90;;;;;;5028961;28;20394;-89
2022/01/30 07:29:06;;;;;;;5.70;1.40;;;5.00;99.90;;;;;;5029691;28;20076;-87
2022/01/30 07:31:33;;;;;;;9.52;1.35;;;5.10;99.90;;;;;;5029175;28;20046;-87
2022/01/30 07:34:01;;;;;;;10.07;1.45;;;5.00;99.90;;;;;;5013790;28;20056;-88
2022/01/30 07:36:30;;;;;;;13.93;2.13;;;5.00;99.90;;;;;;5012966;28;20085;-89
2022/01/30 07:38:57;;;;;;;7.45;1.33;;;5.10;99.90;;;;;;5029348;28;20069;-88
2022/01/30 07:41:24;;;;;;;7.63;1.50;;;5.00;99.90;;;;;;5028080;28;20050;-87
2022/01/30 07:43:50;;;;;;;8.75;1.48;;;5.10;99.90;;;;;;5029120;28;20092;-87
2022/01/30 07:46:18;;;;;;;10.40;1.58;;;5.10;99.90;;;;;;5013649;28;20108;-88
2022/01/30 07:48:45;;;;;;;11.98;1.80;;;5.10;99.90;;;;;;5029241;28;20132;-87
2022/01/30 07:51:11;;;;;;;12.38;2.05;;;5.10;99.90;;;;;;5028972;28;20107;-90
2022/01/30 07:53:38;;;;;;;10.73;1.92;;;5.10;99.90;;;;;;5012728;28;20056;-91
2022/01/30 07:56:05;;;;;;;10.35;1.88;;;5.10;99.90;;;;;;5027771;28;20053;-88
2022/01/30 07:58:31;;;;;;;5.18;1.15;;;5.10;99.90;;;;;;5029423;28;20132;-89
2022/01/30 08:00:58;;;;;;;11.48;1.95;;;5.20;99.90;;;;;;5029712;28;20053;-90
2022/01/30 08:03:27;;;;;;;6.47;1.17;;;5.20;99.90;;;;;;5029514;28;20042;-88
2022/01/30 08:05:54;;;;;;;8.13;1.63;;;5.20;99.90;;;;;;5028746;28;20046;-87
2022/01/30 08:08:21;;;;;;;9.27;1.45;;;5.20;99.90;;;;;;5029146;28;20050;-90
2022/01/30 08:10:48;;;;;;;7.93;2.15;;;5.30;99.90;;;;;;5029262;28;20056;-87
2022/01/30 08:13:16;;;;;;;8.57;1.48;;;5.30;99.90;;;;;;5029125;28;20045;-87
2022/01/30 08:15:44;;;;;;;8.68;2.20;;;5.20;99.90;;;;;;5028396;28;20057;-88
2022/01/30 08:18:11;;;;;;;7.03;1.48;;;5.30;99.90;;;;;;5031010;28;20042;-87
2022/01/30 08:20:38;;;;;;;10.55;1.98;;;5.20;99.90;;;;;;5033724;28;20601;-91
2022/01/30 08:23:10;;;;;;;8.25;1.63;;;5.30;99.90;;;;;;5033487;28;20071;-88
2022/01/30 08:25:39;;;;;;;8.75;2.28;;;5.30;99.90;;;;;;5032435;28;20064;-88
2022/01/30 08:28:06;;;;;;;7.43;1.67;;;5.30;99.90;;;;;;5033093;28;20053;-87
2022/01/30 08:30:33;;;;;;;10.70;1.40;;;5.30;99.90;;;;;;5032751;28;20053;-90
2022/01/30 08:33:00;;;;;;;8.00;2.00;;;5.30;99.90;;;;;;5017738;28;20101;-88
2022/01/30 08:35:27;;;;;;;8.20;1.75;;;5.30;99.90;;;;;;5032589;28;20046;-88
2022/01/30 08:37:54;;;;;;;9.68;1.70;;;5.30;99.90;;;;;;5032535;28;20050;-90
2022/01/30 08:40:23;;;;;;;6.70;1.85;;;5.40;99.90;;;;;;5032411;28;20094;-87
2022/01/30 08:42:51;;;;;;;7.80;1.55;;;5.40;99.90;;;;;;5032518;28;20077;-87
2022/01/30 08:45:19;;;;;;;10.48;2.20;;;5.40;99.90;;;;;;5017383;28;20104;-91
2022/01/30 08:47:48;;;;;;;11.40;2.28;;;5.40;99.90;;;;;;5031985;28;20050;-88
2022/01/30 08:50:16;;;;;;;8.70;2.30;;;5.40;99.90;;;;;;5032493;28;20561;-88
2022/01/30 08:52:44;;;;;;;10.73;1.42;;;5.40;99.90;;;;;;5031996;28;20546;-88
2022/01/30 08:55:12;;;;;;;12.05;2.00;;;5.50;99.90;;;;;;5016556;28;20053;-87
2022/01/30 08:57:39;;;;;;;16.00;2.35;;;5.50;99.90;;;;;;5032400;28;20080;-87
2022/01/30 09:00:14;;;;;;;13.70;2.17;;;5.60;99.90;;;;;;5032543;28;20050;-87
2022/01/30 09:02:41;;;;;;;14.50;4.72;;;5.60;99.90;;;;;;5032698;28;20096;-88
2022/01/30 09:05:11;;;;;;;14.55;2.42;;;5.50;99.90;;;;;;5032158;28;20057;-88
2022/01/30 09:07:39;;;;;;;12.65;1.88;;;5.50;99.90;;;;;;5032277;28;20049;-87
2022/01/30 09:10:08;;;;;;;7.70;2.03;;;5.60;99.90;;;;;;5031988;28;20060;-88
2022/01/30 09:12:35;;;;;;;8.63;2.00;;;5.60;99.90;;;;;;5032269;28;20056;-88
2022/01/30 09:15:07;;;;;;;13.60;2.60;;;5.70;99.90;;;;;;5031893;28;20081;-87
2022/01/30 09:17:35;;;;;;;16.05;2.47;;;5.60;99.90;;;;;;5032278;28;20050;-86
2022/01/30 09:20:03;;;;;;;13.48;2.80;;;5.70;99.90;;;;;;5031905;28;20074;-88
2022/01/30 09:22:30;;;;;;;8.38;1.85;;;5.80;99.90;;;;;;5031674;28;20060;-87
2022/01/30 09:24:57;;;;;;;13.95;2.67;;;5.80;99.90;;;;;;5031759;28;20074;-87
2022/01/30 09:27:24;;;;;;;15.30;2.60;;;5.80;99.90;;;;;;5032125;28;20049;-86
2022/01/30 09:29:51;;;;;;;11.15;2.10;;;5.90;99.90;;;;;;5015958;28;20068;-87
2022/01/30 09:32:18;;;;;;;9.77;2.65;;;5.90;99.90;;;;;;5031822;28;20132;-92
2022/01/30 09:34:44;;;;;;;14.10;5.05;;;5.90;99.90;;;;;;5031489;28;20050;-89
2022/01/30 09:37:11;;;;;;;23.55;2.92;;;5.90;99.90;;;;;;5031652;28;20085;-90
2022/01/30 09:39:38;;;;;;;14.23;2.35;;;5.80;99.90;;;;;;5031713;28;20089;-88
2022/01/30 09:42:06;;;;;;;11.13;2.42;;;6.10;99.90;;;;;;5031747;28;20049;-88
2022/01/30 09:44:39;;;;;;;19.38;3.03;;;6.20;99.90;;;;;;5015195;28;20153;-89
2022/01/30 09:47:18;;;;;;;13.43;2.55;;;6.20;99.90;;;;;;5031510;28;20085;-88
2022/01/30 09:49:52;;;;;;;17.77;2.90;;;6.30;99.90;;;;;;5031308;28;20085;-87
2022/01/30 09:52:20;;;;;;;17.73;2.65;;;6.30;99.90;;;;;;5031176;28;20478;-87
2022/01/30 09:54:48;;;;;;;16.17;2.75;;;6.20;99.90;;;;;;5031306;28;20062;-91
2022/01/30 09:57:15;;;;;;;17.08;3.53;;;6.30;99.90;;;;;;5031498;28;20061;-86
2022/01/30 09:59:42;;;;;;;16.33;3.22;;;6.30;99.90;;;;;;5031063;28;20099;-86
2022/01/30 10:02:10;;;;;;;17.05;2.78;;;6.20;99.90;;;;;;5030989;28;20056;-86
2022/01/30 10:04:38;;;;;;;10.98;2.40;;;6.10;99.90;;;;;;5031036;28;20475;-87
2022/01/30 10:07:13;;;;;;;19.13;3.13;;;6.30;99.90;;;;;;5015716;28;20054;-88
2022/01/30 10:09:45;;;;;;;16.73;2.65;;;6.20;99.90;;;;;;5030921;28;20050;-88
2022/01/30 10:12:19;;;;;;;17.83;3.15;;;6.20;99.90;;;;;;5031132;28;20057;-86
2022/01/30 10:15:01;;;;;;;19.20;2.85;;;6.30;99.90;;;;;;5030484;28;20052;-87
2022/01/30 10:17:40;;;;;;;18.60;3.03;;;6.40;99.90;;;;;;5030839;28;20085;-89
2022/01/30 10:20:27;;;;;;;17.00;3.08;;;6.30;99.90;;;;;;5027886;28;20046;-90
2022/01/30 10:23:03;;;;;;;13.45;2.80;;;6.30;99.90;;;;;;5014968;28;20054;-87
2022/01/30 10:25:33;;;;;;;17.80;2.47;;;6.50;99.90;;;;;;5030591;28;20050;-86
2022/01/30 10:28:12;;;;;;;20.52;2.88;;;6.60;99.90;;;;;;5030627;28;20054;-87
2022/01/30 10:30:53;;;;;;;19.98;3.83;;;6.70;99.90;;;;;;5015154;28;20613;-87
2022/01/30 10:33:23;;;;;;;20.08;3.03;;;6.60;99.90;;;;;;5030028;28;20062;-87
2022/01/30 10:35:56;;;;;;;17.38;3.38;;;6.60;99.90;;;;;;5030103;28;20050;-87
2022/01/30 10:38:31;;;;;;;16.90;2.53;;;6.50;99.90;;;;;;5030293;28;20140;-87
2022/01/30 10:41:12;;;;;;;19.02;3.17;;;6.50;99.90;;;;;;5029614;28;20057;-87
2022/01/30 10:43:56;;;;;;;15.80;3.25;;;6.50;99.90;;;;;;5029968;28;20482;-87
2022/01/30 10:46:42;;;;;;;13.82;2.47;;;6.50;99.90;;;;;;5030097;28;20074;-87
2022/01/30 10:49:11;;;;;;;19.75;2.97;;;6.40;99.90;;;;;;5030475;28;20049;-89
2022/01/30 10:51:38;;;;;;;19.23;2.92;;;6.50;99.90;;;;;;5029990;28;20164;-90
2022/01/30 10:54:09;;;;;;;15.50;3.20;;;6.60;99.90;;;;;;5030129;28;20054;-88
2022/01/30 10:56:37;;;;;;;17.27;2.70;;;6.70;99.90;;;;;;5030083;28;20491;-90
2022/01/30 10:59:20;;;;;;;17.73;3.17;;;6.60;99.90;;;;;;5030462;28;20046;-88
2022/01/30 11:01:51;;;;;;;15.52;2.97;;;6.50;99.90;;;;;;5029995;28;20162;-87
2022/01/30 11:04:27;;;;;;;21.02;3.13;;;6.60;99.90;;;;;;5030405;28;20057;-87
2022/01/30 11:06:55;;;;;;;19.38;3.55;;;6.40;99.90;;;;;;5029745;28;20076;-87
2022/01/30 11:09:28;;;;;;;17.67;3.28;;;6.40;99.90;;;;;;5030324;28;20053;-87
2022/01/30 11:14:39;;;;;;;14.00;2.72;;;6.40;99.90;;;;;;5014754;28;20050;-88
2022/01/30 11:17:08;;;;;;;18.67;3.22;;;6.30;99.90;;;;;;5029691;28;20056;-91
2022/01/30 11:19:41;;;;;;;17.88;2.88;;;6.00;99.90;;;;;;5029991;28;20076;-87
2022/01/30 11:22:14;;;;;;;15.38;2.45;;;6.00;99.90;;;;;;5029592;28;20058;-87
2022/01/30 11:24:48;;;;;;;17.75;3.17;;;5.90;99.90;;;;;;5029260;28;20053;-88
2022/01/30 11:27:20;;;;;;;16.75;2.88;;;6.10;99.90;;;;;;5029459;28;20053;-87
2022/01/30 11:29:48;;;;;;;10.95;2.45;;;6.20;99.90;;;;;;5029410;28;20060;-89
2022/01/30 11:32:17;;;;;;;13.20;2.40;;;6.30;99.90;;;;;;5029612;28;20060;-88
2022/01/30 11:34:50;;;;;;;17.80;2.72;;;6.30;99.90;;;;;;5028303;28;20078;-89
2022/01/30 11:37:25;;;;;;;16.08;4.53;;;6.20;99.90;;;;;;5028499;28;20054;-85
2022/01/30 11:39:52;;;;;;;8.55;2.70;;;6.00;99.90;;;;;;5028617;28;20132;-88
2022/01/30 11:42:25;;;;;;;13.30;2.60;;;5.90;99.90;;;;;;5028975;28;20096;-87
2022/01/30 11:45:03;;;;;;;12.00;2.47;;;5.50;99.90;;;;;;5029172;28;20046;-88
2022/01/30 11:47:52;;;;;;;17.25;3.17;;;5.20;99.90;;;;;;5026683;28;20076;-91
2022/01/30 11:50:28;;;;;;;13.70;2.30;;;5.00;99.90;;;;;;5029012;28;20049;-89
2022/01/30 11:53:03;;;;;;;14.65;2.30;;;4.80;99.90;;;;;;5028922;28;20056;-88
2022/01/30 11:55:41;;;;;;;16.05;2.65;;;5.00;99.90;;;;;;5027582;28;20474;-87
2022/01/30 11:58:38;;;;;;;14.40;3.40;;;5.20;99.90;;;;;;5028775;28;20536;-88
2022/01/30 12:01:13;;;;;;;15.20;2.70;;;5.30;99.90;;;;;;5012377;28;20046;-87
2022/01/30 12:03:59;;;;;;;15.52;3.00;;;5.20;99.90;;;;;;5028476;28;20160;-88
2022/01/30 12:06:31;;;;;;;17.40;3.17;;;5.20;99.90;;;;;;5028321;28;20046;-88
2022/01/30 12:09:15;;;;;;;15.48;3.95;;;5.20;99.90;;;;;;5028382;28;20132;-87
2022/01/30 12:11:43;;;;;;;15.93;2.90;;;5.20;99.90;;;;;;5028258;28;20405;-88
2022/01/30 12:14:56;;;;;;;10.48;2.63;;;5.60;99.90;;;;;;5028464;28;20491;-88
2022/01/30 12:17:45;;;;;;;12.07;2.97;;;6.50;99.90;;;;;;5007575;28;20089;-87
2022/01/30 12:20:12;;;;;;;12.35;2.47;;;7.30;99.90;;;;;;5028222;28;20133;-90
2022/01/30 12:22:40;;;;;;;13.35;2.45;;;7.60;99.90;;;;;;5028058;28;20054;-87
2022/01/30 12:25:24;;;;;;;14.45;3.00;;;7.50;99.90;;;;;;5012938;28;20081;-87
2022/01/30 12:27:55;;;;;;;9.05;2.63;;;7.40;99.90;;;;;;5027823;28;20081;-87
2022/01/30 12:30:43;;;;;;;10.80;2.85;;;7.00;99.90;;;;;;5028176;28;20081;-87
2022/01/30 12:33:30;;;;;;;16.35;2.88;;;7.10;99.90;;;;;;5028023;28;20054;-87
2022/01/30 12:35:58;;;;;;;13.73;2.72;;;7.10;99.90;;;;;;5027587;28;20054;-87
2022/01/30 12:38:33;;;;;;;15.95;3.40;;;7.10;99.90;;;;;;5028124;28;20096;-91
2022/01/30 12:41:01;;;;;;;24.58;3.92;;;6.90;99.90;;;;;;5028547;28;20057;-86
2022/01/30 12:43:31;;;;;;;19.52;3.78;;;6.60;99.90;;;;;;5011669;28;20085;-87
2022/01/30 12:46:05;;;;;;;18.70;3.03;;;6.60;99.90;;;;;;5027825;28;20065;-87
2022/01/30 12:48:32;;;;;;;19.67;3.25;;;6.60;99.90;;;;;;5027486;28;20112;-88
2022/01/30 12:51:06;;;;;;;19.33;3.20;;;6.60;99.90;;;;;;5011412;28;20048;-87
2022/01/30 12:53:36;;;;;;;22.98;3.97;;;6.50;99.90;;;;;;5027450;28;20132;-90
2022/01/30 12:56:05;;;;;;;14.93;3.50;;;6.50;99.90;;;;;;5027967;28;20129;-87
2022/01/30 12:58:40;;;;;;;16.13;3.20;;;6.60;99.90;;;;;;5012612;28;20141;-88
2022/01/30 13:01:12;;;;;;;22.70;3.50;;;6.50;99.90;;;;;;5027511;28;20046;-88
2022/01/30 13:03:39;;;;;;;19.23;3.20;;;6.40;99.90;;;;;;5013239;28;20050;-87
2022/01/30 13:06:07;;;;;;;22.58;3.42;;;6.40;99.90;;;;;;5031449;28;20510;-88
2022/01/30 13:08:53;;;;;;;22.35;3.72;;;6.30;99.90;;;;;;5031331;28;20085;-88
2022/01/30 13:11:22;;;;;;;22.40;3.85;;;6.40;99.90;;;;;;5016050;28;20041;-88
2022/01/30 13:13:55;;;;;;;12.63;3.40;;;6.40;99.90;;;;;;5031306;28;20691;-88
2022/01/30 13:16:43;;;;;;;19.60;3.53;;;6.30;99.90;;;;;;5031507;28;20089;-87
2022/01/30 13:19:13;;;;;;;14.18;3.33;;;6.10;99.90;;;;;;5016177;28;20308;-86
2022/01/30 13:21:46;;;;;;;19.60;4.18;;;6.10;99.90;;;;;;5031122;28;20058;-89
2022/01/30 13:24:19;;;;;;;14.93;3.20;;;6.10;99.90;;;;;;5030951;28;20474;-87
2022/01/30 13:26:48;;;;;;;22.25;3.90;;;6.00;99.90;;;;;;5031758;28;20141;-87
2022/01/30 13:29:20;;;;;;;24.30;3.95;;;6.00;99.90;;;;;;5035587;28;20520;-87
2022/01/30 13:31:49;;;;;;;18.38;3.70;;;5.90;99.90;;;;;;5016362;28;20501;-87
2022/01/30 13:34:22;;;;;;;22.77;3.97;;;5.90;99.90;;;;;;5016172;28;20096;-87
2022/01/30 13:36:54;;;;;;;23.92;3.83;;;6.00;99.90;;;;;;5015675;28;20050;-87
2022/01/30 13:39:28;;;;;;;24.20;5.10;;;6.00;99.90;;;;;;5031256;28;20188;-89
2022/01/30 13:42:14;;;;;;;19.40;4.35;;;6.20;99.90;;;;;;5030656;28;20065;-88
2022/01/30 13:44:52;;;;;;;24.05;4.30;;;6.30;99.90;;;;;;5030583;28;20482;-87
2022/01/30 13:47:21;;;;;;;22.65;3.60;;;6.30;99.90;;;;;;5030801;28;20108;-87
2022/01/30 13:49:49;;;;;;;23.58;4.43;;;6.30;99.90;;;;;;5030570;28;20056;-88
2022/01/30 13:52:18;;;;;;;18.70;4.18;;;6.30;99.90;;;;;;5013627;28;20056;-87
2022/01/30 13:55:05;;;;;;;26.48;3.65;;;6.20;99.90;;;;;;5030161;28;20606;-87
2022/01/30 13:57:34;;;;;;;25.33;4.45;;;6.10;99.90;;;;;;5013973;28;20417;-87